ADDS METAR Data INFO
IDs: Format: Raw Decoded Include TAF

Data at: 1738 UTC 15 Dec 2017

KLZU 151656Z 27012G18KT 250V330 10SM CLR 06/M03 A3005 RMK AO2 SLP192 T00561033
KLZU 151556Z 28009KT 240V310 10SM CLR 06/M03 A3004 RMK AO2 SLP187 T00561033
KLZU 151456Z 27007KT 10SM CLR 03/M02 A3003 RMK AO2 SLP187 T00331022 51015
KLZU 151356Z 27006KT 10SM CLR 02/M02 A3002 RMK AO2 SLP183 T00221022
KLZU 151256Z VRB05KT 10SM CLR 02/M02 A3001 RMK AO2 SLP178 T00221017
KLZU 151156Z 27004KT 10SM CLR 03/M01 A2999 RMK AO2 SLP171 T00281011 10061 20028 53004
KLZU 151056Z AUTO VRB04KT 10SM CLR 04/M01 A2998 RMK AO2 SLP166 T00391011
KLZU 150956Z AUTO 27003KT 10SM CLR 04/00 A2997 RMK AO2 SLP162 T00390000
KLZU 150856Z AUTO 00000KT 10SM CLR 04/01 A2998 RMK AO2 SLP163 T00390006 55002
KLZU 150756Z AUTO 00000KT 10SM CLR 04/01 A2997 RMK AO2 SLP161 T00440006
KLZU 150656Z AUTO 00000KT 10SM CLR 05/01 A2997 RMK AO2 SLP162 T00500011
KLZU 150556Z AUTO 00000KT 10SM CLR 06/02 A2998 RMK AO2 SLP164 T00560017 10078 20033 50002
KLZU 150456Z AUTO 00000KT 10SM CLR 04/02 A2998 RMK AO2 SLP166 T00440017 401441011
KLZU 150356Z AUTO 00000KT 10SM CLR 04/01 A2998 RMK AO2 SLP167 T00390006
KLZU 150256Z AUTO 00000KT 10SM CLR 03/00 A2998 RMK AO2 SLP165 T00330000 51010
KLZU 150156Z AUTO 00000KT 10SM CLR 05/00 A2997 RMK AO2 SLP166 T00500000
KLZU 150056Z 00000KT 10SM CLR 06/01 A2996 RMK AO2 SLP160 T00560006
KLZU 142356Z 00000KT 10SM CLR 07/M01 A2995 RMK AO2 SLP156 T00721006 10144 20067 53012
KLZU 142256Z 00000KT 10SM CLR 09/M01 A2993 RMK AO2 SLP150 T00941006
KLZU 142156Z VRB05KT 10SM CLR 13/M01 A2992 RMK AO2 SLP145 T01281006
KLZU 142056Z VRB05KT 10SM CLR 14/M01 A2991 RMK AO2 SLP141 T01391011 53002
KLZU 141956Z 29007KT 260V330 10SM CLR 14/M01 A2990 RMK AO2 SLP138 T01391011
KLZU 141856Z 24012KT 10SM CLR 14/M01 A2990 RMK AO2 SLP135 T01391011
KLZU 141756Z 24009KT 10SM CLR 13/M01 A2990 RMK AO2 SLP138 T01281011 10128 20017 58002
KLZU 141656Z 25008KT 10SM CLR 11/M02 A2992 RMK AO2 SLP144 T01111017
KLZU 141556Z 27008KT 10SM CLR 09/M02 A2992 RMK AO2 SLP144 T00941022
KLZU 141456Z 26007KT 10SM CLR 08/M02 A2991 RMK AO2 SLP142 T00781017 53015
KLZU 141356Z 26007KT 10SM CLR 04/M02 A2989 RMK AO2 SLP137 T00441022
KLZU 141256Z 26005KT 10SM CLR 02/M03 A2988 RMK AO2 SLP135 T00171028 FZRANO
KLZU 141156Z 26006KT 10SM CLR 02/M03 A2986 RMK AO2 SLP129 T00171033 10033 21011 53012 FZRANO
KLZU 141056Z AUTO 26004KT 10SM CLR 00/M04 A2984 RMK AO2 SLP121 T00001039 FZRANO
KLZU 140956Z AUTO 30003KT 10SM CLR 01/M04 A2982 RMK AO2 SLP115 T00061044 FZRANO
KLZU 140856Z AUTO 25003KT 10SM CLR 01/M05 A2983 RMK AO2 SLP116 T00111050 56002 FZRANO
KLZU 140756Z AUTO 28004KT 10SM CLR 03/M05 A2983 RMK AO2 SLP117 T00281050
KLZU 140656Z AUTO 26005KT 10SM CLR 03/M06 A2983 RMK AO2 SLP114 T00281056
KLZU 140556Z AUTO 26004KT 10SM CLR 03/M06 A2984 RMK AO2 SLP118 T00331061 10050 20017 58002